createdAt,value
2019-05-07T00:02:52.219Z,5.45
2019-05-07T00:05:56.366Z,5.07
2019-05-07T00:09:00.270Z,5.70
2019-05-07T00:12:05.066Z,5.43
2019-05-07T00:15:09.455Z,6.97
2019-05-07T00:18:13.113Z,5.20
2019-05-07T00:21:17.044Z,6.00
2019-05-07T00:24:22.356Z,5.70
2019-05-07T00:27:26.169Z,5.87
2019-05-07T00:30:32.977Z,5.97
2019-05-07T00:33:36.953Z,6.23
2019-05-07T00:37:06.867Z,7.03
2019-05-07T00:40:22.636Z,6.53
2019-05-07T00:43:29.495Z,6.43
2019-05-07T00:46:33.187Z,7.10
2019-05-07T00:49:36.919Z,7.07
2019-05-07T00:52:42.836Z,7.23
2019-05-07T00:55:46.061Z,7.73
2019-05-07T00:58:49.782Z,7.40
2019-05-07T01:01:53.811Z,7.20
2019-05-07T01:04:57.489Z,9.13
2019-05-07T01:08:02.603Z,8.40
2019-05-07T01:11:06.585Z,7.70
2019-05-07T01:14:12.355Z,7.87
2019-05-07T01:17:15.933Z,7.33
2019-05-07T01:20:21.977Z,7.83
2019-05-07T01:23:25.098Z,8.57
2019-05-07T01:26:29.017Z,8.40
2019-05-07T01:29:32.955Z,8.07
2019-05-07T01:32:45.929Z,7.93
2019-05-07T01:36:14.545Z,7.93
2019-05-07T01:39:18.486Z,7.77
2019-05-07T01:42:22.326Z,7.53
2019-05-07T01:45:26.277Z,8.60
2019-05-07T01:48:32.203Z,7.73
2019-05-07T01:51:35.610Z,8.50
2019-05-07T01:54:39.315Z,14.17
2019-05-07T01:57:43.025Z,9.07
2019-05-07T02:00:46.663Z,8.13
2019-05-07T02:03:56.702Z,8.37
2019-05-07T02:07:17.413Z,8.87
2019-05-07T02:10:38.235Z,10.27
2019-05-07T02:13:42.116Z,8.03
2019-05-07T02:16:45.801Z,8.43
2019-05-07T02:19:49.509Z,7.80
2019-05-07T02:22:53.381Z,8.47
2019-05-07T02:25:57.238Z,7.40
2019-05-07T02:29:02.761Z,7.70
2019-05-07T02:32:06.536Z,8.90
2019-05-07T02:35:13.651Z,7.50
2019-05-07T02:38:23.000Z,8.00
2019-05-07T02:41:32.830Z,7.67
2019-05-07T02:44:54.742Z,7.87
2019-05-07T02:47:58.428Z,8.13
2019-05-07T02:51:07.487Z,8.73
2019-05-07T02:54:25.572Z,7.63
2019-05-07T02:57:29.781Z,7.80
2019-05-07T03:00:34.623Z,8.27
2019-05-07T03:03:39.097Z,7.83
2019-05-07T03:06:44.358Z,8.20
2019-05-07T03:09:48.451Z,7.90
2019-05-07T03:12:53.682Z,8.77
2019-05-07T03:15:57.889Z,7.60
2019-05-07T03:19:04.034Z,10.43
2019-05-07T03:22:07.507Z,8.57
2019-05-07T03:25:17.036Z,9.00
2019-05-07T03:28:23.131Z,8.77
2019-05-07T03:31:58.323Z,10.63
2019-05-07T03:35:27.428Z,9.67
2019-05-07T03:38:28.655Z,9.80
2019-05-07T03:41:33.340Z,11.27
2019-05-07T03:44:44.651Z,10.32
2019-05-07T03:47:54.271Z,10.53
2019-05-07T03:50:58.076Z,9.93
2019-05-07T03:54:02.980Z,11.43
2019-05-07T03:57:11.437Z,10.87
2019-05-07T04:00:13.318Z,11.30
2019-05-07T04:03:19.640Z,10.13
2019-05-07T04:06:23.479Z,10.97
2019-05-07T04:09:27.959Z,10.87
2019-05-07T04:12:34.249Z,11.00
2019-05-07T04:15:37.512Z,10.83
2019-05-07T04:18:43.766Z,11.40
2019-05-07T04:21:46.578Z,12.70
2019-05-07T04:24:58.104Z,12.60
2019-05-07T04:28:10.728Z,13.40
2019-05-07T04:31:14.647Z,11.50
2019-05-07T04:34:40.299Z,10.93
2019-05-07T04:37:44.022Z,11.53
2019-05-07T04:40:48.750Z,11.17
2019-05-07T04:43:54.070Z,12.17
2019-05-07T04:46:58.246Z,14.10
2019-05-07T04:50:03.863Z,11.87
2019-05-07T04:53:07.298Z,11.87
2019-05-07T04:56:13.855Z,12.10
2019-05-07T04:59:16.682Z,11.23
2019-05-07T05:02:23.167Z,11.27
2019-05-07T05:05:27.124Z,11.77
2019-05-07T05:08:32.487Z,12.70
2019-05-07T05:11:36.458Z,12.77
2019-05-07T05:14:43.207Z,12.27
2019-05-07T05:17:50.031Z,11.17
2019-05-07T05:21:17.234Z,13.43
2019-05-07T05:24:26.447Z,14.23
2019-05-07T05:27:32.597Z,13.83
2019-05-07T05:30:42.883Z,14.87
2019-05-07T05:33:46.555Z,13.57
2019-05-07T05:36:50.233Z,10.10
2019-05-07T05:40:05.619Z,14.63
2019-05-07T05:43:06.402Z,18.23
2019-05-07T05:46:12.085Z,10.57
2019-05-07T05:49:15.882Z,11.47
2019-05-07T05:52:42.496Z,10.37
2019-05-07T05:55:46.681Z,12.37
2019-05-07T05:59:04.218Z,9.00
2019-05-07T06:02:22.671Z,11.90
2019-05-07T06:05:48.073Z,10.47
2019-05-07T06:09:02.284Z,6.30
2019-05-07T06:12:32.792Z,7.23
2019-05-07T06:15:56.085Z,10.70
2019-05-07T06:19:16.750Z,7.33
2019-05-07T06:22:33.064Z,11.77
2019-05-07T06:25:37.099Z,9.80
2019-05-07T06:28:42.524Z,7.30
2019-05-07T06:32:02.479Z,8.77
2019-05-07T06:35:05.761Z,7.80
2019-05-07T06:38:12.291Z,7.07
2019-05-07T06:41:41.890Z,8.10
2019-05-07T06:45:02.787Z,9.23
2019-05-07T06:48:06.226Z,6.17
2019-05-07T06:51:09.962Z,6.97
2019-05-07T06:54:13.906Z,6.93
2019-05-07T06:57:17.576Z,7.00
2019-05-07T07:00:42.098Z,4.97
2019-05-07T07:04:02.638Z,8.60
2019-05-07T07:07:26.621Z,8.93
2019-05-07T07:10:45.798Z,3.73
2019-05-07T07:13:51.886Z,6.03
2019-05-07T07:16:55.390Z,6.43
2019-05-07T07:20:01.869Z,4.40
2019-05-07T07:23:05.131Z,6.23
2019-05-07T07:26:09.109Z,7.40
2019-05-07T07:29:14.401Z,4.67
2019-05-07T07:32:22.098Z,4.30
2019-05-07T07:35:25.949Z,5.37
2019-05-07T07:38:33.037Z,5.40
2019-05-07T07:41:39.394Z,5.27
2019-05-07T07:44:43.367Z,6.70
2019-05-07T07:47:47.397Z,3.63
2019-05-07T07:50:52.429Z,3.67
2019-05-07T07:53:56.185Z,8.87
2019-05-07T07:57:12.740Z,7.70
2019-05-07T08:00:29.777Z,6.33
2019-05-07T08:03:32.956Z,3.13
2019-05-07T08:06:39.180Z,3.63
2019-05-07T08:09:43.538Z,3.03
2019-05-07T08:12:47.298Z,4.43
2019-05-07T08:15:51.918Z,6.87
2019-05-07T08:18:55.705Z,4.57
2019-05-07T08:21:59.457Z,3.97
2019-05-07T08:25:04.734Z,4.07
2019-05-07T08:28:08.482Z,4.63
2019-05-07T08:31:22.475Z,6.80
2019-05-07T08:34:38.807Z,3.87
2019-05-07T08:37:42.769Z,4.43
2019-05-07T08:40:48.903Z,10.50
2019-05-07T08:44:08.118Z,5.63
2019-05-07T08:47:24.981Z,4.27
2019-05-07T08:50:28.993Z,6.27
2019-05-07T08:53:32.878Z,2.27
2019-05-07T08:56:37.309Z,2.53
2019-05-07T08:59:43.698Z,3.40
2019-05-07T09:02:47.017Z,2.90
2019-05-07T09:05:52.011Z,3.07
2019-05-07T09:08:55.794Z,2.63
2019-05-07T09:11:59.726Z,3.93
2019-05-07T09:15:03.505Z,4.17
2019-05-07T09:18:07.351Z,3.83
2019-05-07T09:21:12.625Z,2.40
2019-05-07T09:24:16.590Z,3.50
2019-05-07T09:27:27.743Z,4.37
2019-05-07T09:30:52.561Z,4.40
2019-05-07T09:33:56.766Z,3.00
2019-05-07T09:37:02.490Z,3.50
2019-05-07T09:40:06.375Z,3.93
2019-05-07T09:43:11.780Z,3.53
2019-05-07T09:46:16.071Z,3.07
2019-05-07T09:49:22.121Z,2.67
2019-05-07T09:52:25.454Z,4.07
2019-05-07T09:55:29.122Z,5.13
2019-05-07T09:58:38.809Z,4.37
2019-05-07T10:01:38.337Z,2.87
2019-05-07T10:04:42.234Z,5.67
2019-05-07T10:07:46.003Z,5.73
2019-05-07T10:10:51.234Z,5.00
2019-05-07T10:14:01.969Z,5.10
2019-05-07T10:17:27.364Z,2.90
2019-05-07T10:20:32.731Z,3.40
2019-05-07T10:23:36.986Z,3.87
2019-05-07T10:26:42.728Z,4.40
2019-05-07T10:29:46.377Z,4.57
2019-05-07T10:32:52.550Z,4.87
2019-05-07T10:35:55.721Z,3.47
2019-05-07T10:38:59.437Z,4.40
2019-05-07T10:42:03.129Z,3.70
2019-05-07T10:45:18.821Z,4.23
2019-05-07T10:48:29.279Z,5.00
2019-05-07T10:51:32.986Z,3.57
2019-05-07T10:54:36.630Z,3.67
2019-05-07T10:57:42.244Z,3.20
2019-05-07T11:00:46.686Z,13.03
2019-05-07T11:03:51.730Z,2.60
2019-05-07T11:06:55.810Z,4.07
2019-05-07T11:10:01.818Z,3.50
2019-05-07T11:13:05.497Z,4.40
2019-05-07T11:16:12.550Z,7.10
2019-05-07T11:19:18.793Z,4.60
2019-05-07T11:22:22.155Z,4.60
2019-05-07T11:25:25.860Z,6.40
2019-05-07T11:28:29.526Z,4.20
2019-05-07T11:31:33.390Z,6.43
2019-05-07T11:34:37.257Z,2.70
2019-05-07T11:37:44.090Z,3.37
2019-05-07T11:40:46.407Z,2.40
2019-05-07T11:44:13.218Z,5.10
2019-05-07T11:47:22.825Z,4.90
2019-05-07T11:51:00.450Z,2.80
2019-05-07T11:54:12.628Z,3.70
2019-05-07T11:57:16.982Z,2.07
2019-05-07T12:00:32.730Z,3.43
2019-05-07T12:03:36.487Z,3.40
2019-05-07T12:06:40.267Z,3.63
2019-05-07T12:09:44.032Z,3.20
2019-05-07T12:12:47.981Z,2.40
2019-05-07T12:15:52.336Z,4.00
2019-05-07T12:18:56.145Z,4.17
2019-05-07T12:21:59.800Z,3.40
2019-05-07T12:25:03.654Z,3.20
2019-05-07T12:28:07.650Z,2.47
2019-05-07T12:31:29.000Z,8.67
2019-05-07T12:34:42.557Z,4.03
2019-05-07T12:37:49.460Z,2.47
2019-05-07T12:40:52.385Z,3.13
2019-05-07T12:43:56.329Z,3.97
2019-05-07T12:47:01.699Z,2.40
2019-05-07T12:50:05.766Z,2.30
2019-05-07T12:53:34.528Z,2.50
2019-05-07T12:56:38.213Z,2.30
2019-05-07T12:59:42.637Z,4.03
2019-05-07T13:02:52.846Z,3.13
2019-05-07T13:05:56.658Z,2.97
2019-05-07T13:09:00.855Z,2.67
2019-05-07T13:12:04.528Z,2.73
2019-05-07T13:15:21.948Z,3.17
2019-05-07T13:18:14.259Z,2.40
2019-05-07T13:21:18.887Z,5.43
2019-05-07T13:24:22.994Z,3.33
2019-05-07T13:27:26.677Z,2.53
2019-05-07T13:30:30.644Z,2.30
2019-05-07T13:33:35.444Z,2.20
2019-05-07T13:36:42.722Z,3.10
2019-05-07T13:39:53.861Z,4.10
2019-05-07T13:43:04.356Z,2.47
2019-05-07T13:46:12.738Z,3.13
2019-05-07T13:49:17.328Z,2.17
2019-05-07T13:52:22.107Z,2.23
2019-05-07T13:55:26.431Z,3.33
2019-05-07T13:58:32.738Z,2.30
2019-05-07T14:01:47.718Z,2.30
2019-05-07T14:05:00.319Z,2.10
2019-05-07T14:08:04.653Z,3.93
2019-05-07T14:11:08.494Z,3.60
2019-05-07T14:14:12.583Z,2.07
2019-05-07T14:17:16.245Z,2.37
2019-05-07T14:20:22.071Z,3.90
2019-05-07T14:23:25.721Z,2.63
2019-05-07T14:26:29.375Z,2.33
2019-05-07T14:29:33.097Z,2.03
2019-05-07T14:32:55.905Z,2.63
2019-05-07T14:36:04.902Z,2.80
2019-05-07T14:39:09.170Z,2.90
2019-05-07T14:42:17.228Z,2.37
2019-05-07T14:45:23.605Z,2.13
2019-05-07T14:48:26.910Z,3.80
2019-05-07T14:51:32.523Z,2.20
2019-05-07T14:54:36.330Z,2.30
2019-05-07T14:57:43.228Z,2.10
2019-05-07T15:00:46.959Z,2.40
2019-05-07T15:03:51.677Z,3.17
2019-05-07T15:06:55.402Z,2.50
2019-05-07T15:09:59.162Z,2.47
2019-05-07T15:13:02.959Z,2.17
2019-05-07T15:16:07.025Z,2.83
2019-05-07T15:19:12.435Z,2.00
2019-05-07T15:22:45.835Z,2.37
2019-05-07T15:25:37.488Z,2.30
2019-05-07T15:28:42.968Z,2.20
2019-05-07T15:32:06.161Z,2.67
2019-05-07T15:35:12.441Z,2.30
2019-05-07T15:38:16.037Z,4.47
2019-05-07T15:41:20.287Z,2.00
2019-05-07T15:44:24.229Z,2.40
2019-05-07T15:47:33.855Z,2.77
2019-05-07T15:50:37.795Z,3.30
2019-05-07T15:53:48.578Z,3.20
2019-05-07T15:56:55.632Z,2.80
2019-05-07T16:00:05.761Z,2.17
2019-05-07T16:03:22.186Z,2.67
2019-05-07T16:06:26.426Z,2.67
2019-05-07T16:09:43.143Z,2.40
2019-05-07T16:12:47.407Z,4.57
2019-05-07T16:15:52.858Z,2.57
2019-05-07T16:19:06.820Z,2.33
2019-05-07T16:22:14.666Z,2.40
2019-05-07T16:25:18.372Z,3.80
2019-05-07T16:28:22.300Z,2.27
2019-05-07T16:31:26.270Z,2.30
2019-05-07T16:34:32.387Z,2.50
2019-05-07T16:37:35.385Z,2.80
2019-05-07T16:40:39.278Z,2.77
2019-05-07T16:43:42.973Z,2.40
2019-05-07T16:46:46.920Z,2.20
2019-05-07T16:49:50.826Z,2.13
2019-05-07T16:52:54.587Z,3.10
2019-05-07T16:55:58.337Z,2.67
2019-05-07T16:59:04.426Z,2.80
2019-05-07T17:02:14.485Z,2.90
2019-05-07T17:05:18.469Z,2.70
2019-05-07T17:08:27.559Z,3.13
2019-05-07T17:11:48.706Z,3.53
2019-05-07T17:14:52.477Z,2.23
2019-05-07T17:17:59.294Z,2.50
2019-05-07T17:21:03.048Z,2.00
2019-05-07T17:24:06.759Z,2.47
2019-05-07T17:27:11.920Z,3.93
2019-05-07T17:30:15.898Z,2.40
2019-05-07T17:33:19.781Z,2.73
2019-05-07T17:36:23.512Z,3.47
2019-05-07T17:39:27.453Z,3.20
2019-05-07T17:42:32.864Z,2.70
2019-05-07T17:45:36.781Z,2.60
2019-05-07T17:48:42.654Z,3.13
2019-05-07T17:51:46.192Z,3.53
2019-05-07T17:54:49.862Z,2.40
2019-05-07T17:57:53.583Z,4.23
2019-05-07T18:00:58.781Z,3.35
2019-05-07T18:04:03.076Z,2.93
2019-05-07T18:07:06.914Z,2.47
2019-05-07T18:10:12.581Z,2.60
2019-05-07T18:13:16.582Z,4.53
2019-05-07T18:16:38.204Z,2.50
2019-05-07T18:19:43.082Z,2.42
2019-05-07T18:22:46.943Z,2.73
2019-05-07T18:25:52.509Z,2.72
2019-05-07T18:29:11.808Z,2.35
2019-05-07T18:32:15.159Z,3.00
2019-05-07T18:35:19.698Z,2.47
2019-05-07T18:38:24.030Z,3.10
2019-05-07T18:41:28.147Z,3.20
2019-05-07T18:44:31.814Z,2.70
2019-05-07T18:47:35.710Z,3.00
2019-05-07T18:50:41.820Z,2.50
2019-05-07T18:53:45.370Z,3.30
2019-05-07T18:56:49.437Z,2.85
2019-05-07T18:59:53.730Z,2.70
2019-05-07T19:02:57.448Z,3.12
2019-05-07T19:06:02.788Z,2.90
2019-05-07T19:09:08.385Z,3.40
2019-05-07T19:12:14.015Z,2.40
2019-05-07T19:15:18.143Z,2.70
2019-05-07T19:18:22.800Z,2.67
2019-05-07T19:21:26.822Z,3.33
2019-05-07T19:24:42.207Z,3.20
2019-05-07T19:27:37.589Z,3.40
2019-05-07T19:30:42.024Z,4.67
2019-05-07T19:33:45.981Z,3.27
2019-05-07T19:36:51.836Z,3.03
2019-05-07T19:39:55.366Z,3.43
2019-05-07T19:42:59.297Z,3.50
2019-05-07T19:46:03.040Z,3.33
2019-05-07T19:49:07.439Z,3.13
2019-05-07T19:52:12.448Z,3.30
2019-05-07T19:55:16.495Z,3.63
2019-05-07T19:58:20.241Z,2.60
2019-05-07T20:01:44.183Z,2.97
2019-05-07T20:04:48.065Z,3.50
2019-05-07T20:07:55.617Z,2.83
2019-05-07T20:11:02.761Z,3.37
2019-05-07T20:14:06.679Z,2.93
2019-05-07T20:17:12.255Z,2.73
2019-05-07T20:20:17.559Z,2.80
2019-05-07T20:23:22.753Z,3.60
2019-05-07T20:26:26.583Z,3.23
2019-05-07T20:29:32.318Z,3.70
2019-05-07T20:32:37.245Z,3.53
2019-05-07T20:35:43.760Z,6.07
2019-05-07T20:38:47.278Z,2.80
2019-05-07T20:42:03.175Z,3.63
2019-05-07T20:45:07.208Z,4.27
2019-05-07T20:48:10.885Z,3.63
2019-05-07T20:51:14.566Z,3.50
2019-05-07T20:54:25.007Z,4.10
2019-05-07T20:57:32.769Z,3.40
2019-05-07T21:00:36.629Z,3.90
2019-05-07T21:03:42.352Z,3.57
2019-05-07T21:06:45.734Z,3.80
2019-05-07T21:09:49.881Z,4.23
2019-05-07T21:12:53.596Z,5.47
2019-05-07T21:15:57.539Z,5.23
2019-05-07T21:19:02.098Z,7.87
2019-05-07T21:22:06.703Z,6.97
2019-05-07T21:25:12.023Z,8.23
2019-05-07T21:28:15.917Z,6.70
2019-05-07T21:31:19.621Z,6.17
2019-05-07T21:34:23.317Z,6.77
2019-05-07T21:37:26.979Z,6.70
2019-05-07T21:40:32.068Z,7.07
2019-05-07T21:43:36.182Z,8.13
2019-05-07T21:46:42.321Z,7.17
2019-05-07T21:49:45.400Z,6.23
2019-05-07T21:52:54.251Z,8.03
2019-05-07T21:56:32.446Z,7.87
2019-05-07T21:59:36.882Z,7.77
2019-05-07T22:02:41.856Z,5.90
2019-05-07T22:05:45.826Z,6.07
2019-05-07T22:08:49.536Z,5.03
2019-05-07T22:11:54.158Z,7.17
2019-05-07T22:14:57.871Z,5.93
2019-05-07T22:18:02.729Z,4.70
2019-05-07T22:21:06.549Z,4.90
2019-05-07T22:24:10.277Z,5.10
2019-05-07T22:27:14.152Z,4.30
2019-05-07T22:30:24.741Z,4.58
2019-05-07T22:33:35.958Z,4.30
2019-05-07T22:36:39.601Z,4.73
2019-05-07T22:39:43.323Z,4.90
2019-05-07T22:42:47.046Z,4.37
2019-05-07T22:45:50.758Z,4.35
2019-05-07T22:48:54.425Z,4.77
2019-05-07T22:51:58.111Z,5.47
2019-05-07T22:55:01.869Z,4.77
2019-05-07T22:58:14.454Z,5.30
2019-05-07T23:01:18.289Z,6.50
2019-05-07T23:04:23.062Z,5.70
2019-05-07T23:07:27.241Z,5.60
2019-05-07T23:10:33.298Z,5.90
2019-05-07T23:13:37.458Z,5.27
2019-05-07T23:16:43.081Z,5.23
2019-05-07T23:19:47.098Z,6.93
2019-05-07T23:22:52.005Z,5.60
2019-05-07T23:25:55.822Z,6.53
2019-05-07T23:28:59.574Z,6.30
2019-05-07T23:32:03.306Z,5.97
2019-05-07T23:35:07.821Z,6.57
2019-05-07T23:38:12.959Z,5.87
2019-05-07T23:41:32.940Z,7.00
2019-05-07T23:44:36.799Z,6.50
2019-05-07T23:47:44.409Z,5.90
2019-05-07T23:50:46.158Z,5.40
2019-05-07T23:53:51.898Z,5.97
2019-05-07T23:57:05.875Z,6.80
